createdAt,value
2023-02-19T00:00:48.488Z,0.00
2023-02-19T00:01:48.688Z,0.00
2023-02-19T00:02:48.860Z,0.00
2023-02-19T00:03:49.065Z,0.00
2023-02-19T00:04:49.229Z,0.00
2023-02-19T00:05:49.357Z,0.00
2023-02-19T00:06:49.548Z,0.00
2023-02-19T00:07:49.740Z,0.00
2023-02-19T00:08:49.884Z,0.00
2023-02-19T00:09:50.099Z,0.00
2023-02-19T00:10:50.266Z,0.00
2023-02-19T00:11:50.455Z,0.00
2023-02-19T00:12:50.580Z,0.00
2023-02-19T00:13:50.734Z,0.00
2023-02-19T00:14:50.916Z,0.00
2023-02-19T00:15:51.125Z,0.00
2023-02-19T00:16:51.273Z,0.00
2023-02-19T00:17:51.465Z,0.00
2023-02-19T00:18:51.609Z,0.00
2023-02-19T00:19:51.814Z,0.00
2023-02-19T00:20:51.970Z,0.00
2023-02-19T00:21:52.142Z,0.00
2023-02-19T00:22:52.341Z,0.00
2023-02-19T00:23:52.486Z,0.00
2023-02-19T00:24:52.674Z,0.00
2023-02-19T00:25:52.851Z,0.00
2023-02-19T00:26:53.027Z,0.00
2023-02-19T00:27:53.234Z,0.00
2023-02-19T00:28:53.393Z,0.00
2023-02-19T00:29:53.544Z,0.00
2023-02-19T00:30:53.717Z,0.00
2023-02-19T00:31:53.989Z,0.00
2023-02-19T00:32:54.104Z,0.00
2023-02-19T00:33:54.266Z,0.00
2023-02-19T00:34:54.405Z,0.00
2023-02-19T00:35:54.591Z,0.00
2023-02-19T00:36:54.767Z,0.00
2023-02-19T00:37:54.968Z,0.00
2023-02-19T00:38:55.135Z,0.00
2023-02-19T00:39:55.308Z,0.00
2023-02-19T00:40:55.478Z,0.00
2023-02-19T00:41:55.672Z,0.00
2023-02-19T00:42:55.844Z,0.00
2023-02-19T00:43:56.049Z,0.00
2023-02-19T00:44:56.190Z,0.00
2023-02-19T00:45:56.404Z,0.00
2023-02-19T00:46:56.541Z,0.00
2023-02-19T00:47:56.732Z,0.00
2023-02-19T00:48:56.884Z,0.00
2023-02-19T00:49:57.052Z,0.00
2023-02-19T00:50:57.242Z,0.00
2023-02-19T00:51:57.442Z,0.00
2023-02-19T00:52:57.642Z,0.00
2023-02-19T00:53:57.803Z,0.00
2023-02-19T00:54:57.943Z,0.00
2023-02-19T00:55:58.129Z,0.00
2023-02-19T00:56:58.308Z,0.00
2023-02-19T00:57:58.505Z,0.00
2023-02-19T00:58:58.648Z,0.00
2023-02-19T00:59:58.838Z,0.00
2023-02-19T01:00:59.006Z,0.00
2023-02-19T01:01:59.256Z,0.00
2023-02-19T01:02:59.366Z,0.00
2023-02-19T01:03:59.515Z,0.00
2023-02-19T01:04:59.755Z,0.00
2023-02-19T01:05:59.865Z,0.00
2023-02-19T01:07:00.050Z,0.00
2023-02-19T01:08:00.250Z,0.00
2023-02-19T01:09:00.395Z,0.00
2023-02-19T01:10:00.578Z,0.00
2023-02-19T01:11:00.760Z,0.00
2023-02-19T01:12:00.953Z,0.00
2023-02-19T01:13:01.118Z,0.00
2023-02-19T01:14:01.291Z,0.00
2023-02-19T01:15:01.474Z,0.00
2023-02-19T01:16:01.708Z,0.00
2023-02-19T01:17:01.812Z,0.00
2023-02-19T01:18:01.994Z,0.00
2023-02-19T01:19:02.194Z,0.00
2023-02-19T01:20:02.401Z,0.00
2023-02-19T01:21:02.558Z,0.00
2023-02-19T01:22:02.754Z,0.00
2023-02-19T01:23:02.916Z,0.00
2023-02-19T01:24:03.104Z,0.00
2023-02-19T01:25:03.285Z,0.00
2023-02-19T01:26:03.516Z,0.00
2023-02-19T01:27:03.655Z,0.00
2023-02-19T01:28:03.848Z,0.00
2023-02-19T01:29:04.041Z,0.00
2023-02-19T01:30:04.244Z,0.00
2023-02-19T01:31:04.423Z,0.00
2023-02-19T01:32:04.704Z,0.00
2023-02-19T01:33:04.717Z,0.00
2023-02-19T01:34:04.896Z,0.00
2023-02-19T01:35:05.065Z,0.00
2023-02-19T01:36:05.277Z,0.00
2023-02-19T01:37:05.418Z,0.00
2023-02-19T01:38:05.619Z,0.00
2023-02-19T01:39:05.809Z,0.00
2023-02-19T01:40:06.004Z,0.00
2023-02-19T01:41:06.180Z,0.00
2023-02-19T01:42:06.334Z,0.00
2023-02-19T01:43:06.507Z,0.00
2023-02-19T01:44:06.712Z,0.00
2023-02-19T01:45:06.852Z,0.00
2023-02-19T01:46:07.052Z,0.00
2023-02-19T01:47:07.192Z,0.00
2023-02-19T01:48:07.381Z,0.00
2023-02-19T01:49:07.563Z,0.00
2023-02-19T01:50:07.764Z,0.00
2023-02-19T01:51:08.433Z,0.00
2023-02-19T01:52:08.091Z,0.00
2023-02-19T01:53:08.281Z,0.00
2023-02-19T01:54:08.474Z,0.00
2023-02-19T01:55:08.656Z,0.00
2023-02-19T01:56:08.869Z,0.00
2023-02-19T01:57:09.003Z,0.00
2023-02-19T01:58:09.260Z,0.00
2023-02-19T01:59:09.357Z,0.00
2023-02-19T02:00:09.546Z,0.00
2023-02-19T02:01:10.248Z,0.00
2023-02-19T02:02:09.936Z,0.00
2023-02-19T02:03:10.056Z,0.00
2023-02-19T02:04:10.246Z,0.00
2023-02-19T02:05:10.433Z,0.00
2023-02-19T02:06:10.617Z,0.00
2023-02-19T02:07:10.761Z,0.00
2023-02-19T02:08:10.946Z,0.00
2023-02-19T02:09:11.137Z,0.00
2023-02-19T02:10:11.321Z,0.00
2023-02-19T02:11:11.781Z,0.00
2023-02-19T02:12:11.690Z,0.00
2023-02-19T02:13:11.868Z,0.00
2023-02-19T02:14:12.062Z,0.00
2023-02-19T02:15:12.239Z,0.00
2023-02-19T02:16:12.502Z,0.00
2023-02-19T02:17:12.592Z,0.00
2023-02-19T02:18:12.782Z,0.00
2023-02-19T02:19:12.972Z,0.00
2023-02-19T02:20:13.146Z,0.00
2023-02-19T02:21:13.333Z,0.00
2023-02-19T02:22:13.473Z,0.00
2023-02-19T02:23:13.663Z,0.00
2023-02-19T02:24:13.857Z,0.00
2023-02-19T02:25:14.036Z,0.00
2023-02-19T02:26:14.254Z,0.00
2023-02-19T02:27:14.399Z,0.00
2023-02-19T02:28:14.586Z,0.00
2023-02-19T02:29:14.792Z,0.00
2023-02-19T02:30:14.954Z,0.00
2023-02-19T02:31:15.421Z,0.00
2023-02-19T02:32:15.290Z,0.00
2023-02-19T02:33:15.457Z,0.00
2023-02-19T02:34:15.630Z,0.00
2023-02-19T02:35:15.828Z,0.00
2023-02-19T02:36:16.009Z,0.00
2023-02-19T02:37:16.150Z,0.00
2023-02-19T02:38:16.343Z,0.00
2023-02-19T02:39:16.524Z,0.00
2023-02-19T02:40:16.731Z,0.00
2023-02-19T02:41:16.870Z,0.00
2023-02-19T02:42:17.077Z,0.00
2023-02-19T02:43:17.250Z,0.00
2023-02-19T02:44:17.432Z,0.00
2023-02-19T02:45:17.611Z,0.00
2023-02-19T02:46:17.808Z,0.00
2023-02-19T02:47:17.966Z,0.00
2023-02-19T02:48:18.142Z,0.00
2023-02-19T02:49:18.328Z,0.00
2023-02-19T02:50:18.519Z,0.00
2023-02-19T02:51:18.703Z,0.00
2023-02-19T02:52:18.840Z,0.00
2023-02-19T02:53:19.020Z,0.00
2023-02-19T02:54:19.204Z,0.00
2023-02-19T02:55:19.378Z,0.00
2023-02-19T02:56:19.581Z,0.00
2023-02-19T02:57:19.721Z,0.00
2023-02-19T02:58:19.914Z,0.00
2023-02-19T02:59:20.090Z,0.00
2023-02-19T03:00:20.283Z,0.00
2023-02-19T03:01:20.494Z,0.00
2023-02-19T03:02:20.707Z,0.00
2023-02-19T03:03:20.800Z,0.00
2023-02-19T03:04:21.002Z,0.00
2023-02-19T03:05:21.179Z,0.00
2023-02-19T03:06:21.357Z,0.00
2023-02-19T03:07:21.521Z,0.00
2023-02-19T03:08:21.703Z,0.00
2023-02-19T03:09:21.882Z,0.00
2023-02-19T03:10:22.102Z,0.00
2023-02-19T03:11:22.225Z,0.00
2023-02-19T03:12:22.436Z,0.00
2023-02-19T03:13:22.635Z,0.00
2023-02-19T03:14:22.808Z,0.00
2023-02-19T03:15:22.940Z,0.00
2023-02-19T03:16:23.142Z,0.00
2023-02-19T03:17:23.317Z,0.00
2023-02-19T03:18:23.536Z,0.00
2023-02-19T03:19:23.684Z,0.00
2023-02-19T03:20:23.865Z,0.00
2023-02-19T03:21:24.038Z,0.00
2023-02-19T03:22:24.223Z,0.00
2023-02-19T03:23:24.458Z,0.00
2023-02-19T03:24:24.558Z,0.00
2023-02-19T03:25:24.754Z,0.00
2023-02-19T03:26:24.935Z,0.00
2023-02-19T03:27:25.105Z,0.00
2023-02-19T03:28:25.306Z,0.00
2023-02-19T03:29:25.484Z,0.00
2023-02-19T03:30:25.705Z,0.00
2023-02-19T03:32:41.912Z,0.00
2023-02-19T03:33:42.140Z,0.00
2023-02-19T03:34:42.278Z,0.00
2023-02-19T03:35:42.481Z,0.00
2023-02-19T03:36:42.640Z,0.00
2023-02-19T03:37:42.852Z,0.00
2023-02-19T03:38:43.064Z,0.00
2023-02-19T03:39:43.195Z,0.00
2023-02-19T03:40:43.339Z,0.00
2023-02-19T03:41:43.520Z,0.00
2023-02-19T03:42:43.699Z,0.00
2023-02-19T03:43:43.915Z,0.00
2023-02-19T03:44:44.057Z,0.00
2023-02-19T03:45:44.270Z,0.00
2023-02-19T03:46:44.485Z,0.00
2023-02-19T03:47:44.603Z,0.00
2023-02-19T03:48:44.794Z,0.00
2023-02-19T03:49:46.271Z,0.00
2023-02-19T03:50:45.133Z,0.00
2023-02-19T03:51:45.334Z,0.00
2023-02-19T03:52:45.499Z,0.00
2023-02-19T03:53:45.696Z,0.00
2023-02-19T03:54:45.838Z,0.00
2023-02-19T03:55:46.049Z,0.00
2023-02-19T03:56:46.215Z,0.00
2023-02-19T03:57:46.391Z,0.00
2023-02-19T03:58:46.599Z,0.00
2023-02-19T03:59:46.738Z,0.00
2023-02-19T04:00:46.918Z,0.00
2023-02-19T04:01:47.129Z,0.00
2023-02-19T04:02:47.294Z,0.00
2023-02-19T04:03:47.507Z,0.00
2023-02-19T04:04:47.674Z,0.00
2023-02-19T04:05:47.821Z,0.00
2023-02-19T04:06:48.002Z,0.00
2023-02-19T04:07:48.183Z,0.00
2023-02-19T04:08:48.362Z,0.00
2023-02-19T04:09:48.555Z,0.00
2023-02-19T04:10:48.727Z,0.00
2023-02-19T04:11:48.924Z,0.00
2023-02-19T04:12:49.093Z,0.00
2023-02-19T04:13:49.277Z,0.00
2023-02-19T04:14:49.513Z,0.00
2023-02-19T04:15:49.660Z,0.00
2023-02-19T04:16:49.923Z,0.00
2023-02-19T04:17:50.016Z,0.00
2023-02-19T04:18:50.196Z,0.00
2023-02-19T04:19:50.384Z,0.00
2023-02-19T04:20:50.595Z,0.00
2023-02-19T04:21:50.727Z,0.00
2023-02-19T04:22:50.898Z,0.00
2023-02-19T04:23:51.096Z,0.00
2023-02-19T04:24:51.276Z,0.00
2023-02-19T04:25:51.467Z,0.00
2023-02-19T04:26:51.642Z,0.00
2023-02-19T04:27:51.827Z,0.00
2023-02-19T04:28:52.024Z,0.00
2023-02-19T04:29:52.167Z,0.00
2023-02-19T04:30:52.377Z,0.00
2023-02-19T04:31:52.579Z,0.00
2023-02-19T04:32:52.699Z,0.00
2023-02-19T04:33:52.908Z,0.00
2023-02-19T04:34:54.385Z,0.00
2023-02-19T04:35:53.250Z,0.00
2023-02-19T04:36:53.414Z,0.00
2023-02-19T04:37:53.612Z,0.00
2023-02-19T04:38:53.795Z,0.00
2023-02-19T04:39:53.981Z,0.00
2023-02-19T04:40:54.158Z,0.00
2023-02-19T04:41:54.349Z,0.00
2023-02-19T04:42:54.534Z,0.00
2023-02-19T04:43:54.733Z,0.00
2023-02-19T04:44:54.873Z,0.00
2023-02-19T04:45:55.077Z,0.00
2023-02-19T04:46:55.261Z,0.00
2023-02-19T04:47:55.438Z,0.00
2023-02-19T04:48:55.629Z,0.00
2023-02-19T04:49:55.810Z,0.00
2023-02-19T04:50:55.982Z,0.00
2023-02-19T04:51:56.172Z,0.00
2023-02-19T04:52:56.360Z,0.00
2023-02-19T04:53:56.507Z,0.00
2023-02-19T04:54:56.685Z,0.00
2023-02-19T04:55:56.888Z,0.00
2023-02-19T04:56:57.019Z,0.00
2023-02-19T04:57:57.206Z,0.00
2023-02-19T04:58:57.383Z,0.00
2023-02-19T04:59:57.578Z,0.00
2023-02-19T05:00:57.765Z,0.00
2023-02-19T05:01:57.907Z,0.00
2023-02-19T05:02:58.099Z,0.00
2023-02-19T05:03:58.275Z,0.00
2023-02-19T05:04:58.478Z,0.00
2023-02-19T05:05:58.657Z,0.00
2023-02-19T05:06:58.829Z,0.00
2023-02-19T05:07:59.029Z,0.00
2023-02-19T05:08:59.212Z,0.00
2023-02-19T05:09:59.389Z,0.00
2023-02-19T05:10:59.560Z,0.00
2023-02-19T05:11:59.740Z,0.00
2023-02-19T05:12:59.959Z,0.00
2023-02-19T05:14:00.127Z,0.00
2023-02-19T05:15:00.287Z,0.00
2023-02-19T05:16:00.528Z,0.00
2023-02-19T05:17:00.660Z,0.00
2023-02-19T05:18:00.863Z,0.00
2023-02-19T05:19:01.054Z,0.00
2023-02-19T05:20:01.187Z,0.00
2023-02-19T05:21:01.381Z,0.00
2023-02-19T05:22:01.552Z,0.00
2023-02-19T05:23:01.753Z,0.00
2023-02-19T05:24:01.892Z,0.00
2023-02-19T05:25:02.084Z,0.00
2023-02-19T05:26:02.287Z,0.00
2023-02-19T05:27:02.455Z,0.00
2023-02-19T05:28:02.645Z,0.00
2023-02-19T05:29:02.812Z,0.00
2023-02-19T05:30:03.040Z,0.00
2023-02-19T05:31:03.232Z,0.00
2023-02-19T05:32:03.359Z,0.00
2023-02-19T05:33:03.524Z,0.00
2023-02-19T05:34:03.713Z,0.00
2023-02-19T05:35:03.891Z,0.00
2023-02-19T05:36:04.071Z,0.00
2023-02-19T05:37:04.261Z,0.00
2023-02-19T05:38:04.457Z,0.00
2023-02-19T05:39:04.625Z,0.00
2023-02-19T05:40:04.806Z,0.00
2023-02-19T05:41:05.001Z,0.00
2023-02-19T05:42:05.180Z,0.00
2023-02-19T05:43:05.355Z,0.00
2023-02-19T05:44:05.493Z,0.00
2023-02-19T05:45:05.680Z,0.00
2023-02-19T05:46:05.902Z,0.00
2023-02-19T05:47:06.073Z,0.00
2023-02-19T05:48:06.206Z,0.00
2023-02-19T05:49:06.396Z,0.00
2023-02-19T05:50:06.576Z,0.00
2023-02-19T05:51:06.797Z,0.00
2023-02-19T05:52:06.945Z,0.00
2023-02-19T05:53:07.143Z,0.00
2023-02-19T05:54:07.313Z,0.00
2023-02-19T05:55:07.488Z,0.00
2023-02-19T05:56:07.678Z,0.00
2023-02-19T05:57:07.848Z,0.00
2023-02-19T05:58:08.000Z,0.00
2023-02-19T05:59:08.180Z,0.00
2023-02-19T06:00:08.395Z,0.00
2023-02-19T06:01:08.780Z,0.00
2023-02-19T06:02:08.712Z,0.00
2023-02-19T06:03:08.900Z,0.00
2023-02-19T06:04:09.098Z,0.00
2023-02-19T06:05:09.282Z,0.00
2023-02-19T06:06:09.433Z,0.00
2023-02-19T06:07:09.617Z,0.00
2023-02-19T06:08:09.783Z,0.00
2023-02-19T06:09:09.990Z,0.00
2023-02-19T06:10:10.122Z,0.00
2023-02-19T06:11:10.604Z,0.00
2023-02-19T06:12:10.481Z,0.00
2023-02-19T06:13:10.673Z,0.00
2023-02-19T06:14:10.853Z,0.00
2023-02-19T06:15:11.034Z,0.00
2023-02-19T06:16:11.251Z,0.00
2023-02-19T06:17:11.395Z,0.00
2023-02-19T06:18:11.573Z,0.00
2023-02-19T06:19:11.821Z,0.00
2023-02-19T06:20:11.947Z,0.00
2023-02-19T06:21:12.516Z,0.00
2023-02-19T06:22:12.304Z,0.00
2023-02-19T06:23:12.470Z,0.00
2023-02-19T06:24:12.659Z,0.00
2023-02-19T06:25:12.850Z,0.00
2023-02-19T06:26:12.985Z,0.00
2023-02-19T06:27:13.186Z,0.00
2023-02-19T06:28:13.356Z,0.00
2023-02-19T06:29:13.550Z,0.00
2023-02-19T06:30:13.737Z,0.00
2023-02-19T06:31:14.344Z,0.00
2023-02-19T06:32:14.102Z,0.00
2023-02-19T06:33:14.232Z,0.00
2023-02-19T06:34:14.412Z,0.00
2023-02-19T06:35:14.561Z,0.00
2023-02-19T06:36:14.725Z,0.00
2023-02-19T06:37:14.891Z,0.00
2023-02-19T06:38:15.052Z,0.00
2023-02-19T06:39:15.229Z,0.00
2023-02-19T06:40:15.392Z,0.00
2023-02-19T06:41:15.566Z,0.00
2023-02-19T06:42:15.747Z,0.00
2023-02-19T06:43:15.907Z,0.00
2023-02-19T06:44:16.111Z,0.00
2023-02-19T06:45:16.240Z,0.00
2023-02-19T06:46:16.454Z,0.00
2023-02-19T06:47:16.572Z,0.00
2023-02-19T06:48:16.749Z,0.00
2023-02-19T06:49:16.937Z,0.00
2023-02-19T06:50:17.096Z,0.00
2023-02-19T06:51:17.287Z,0.00
2023-02-19T06:52:17.452Z,0.00
2023-02-19T06:53:17.614Z,0.00
2023-02-19T06:54:17.808Z,0.00
2023-02-19T06:55:17.989Z,0.00
2023-02-19T06:56:18.163Z,0.00
2023-02-19T06:57:18.317Z,0.00
2023-02-19T06:58:18.477Z,0.00
2023-02-19T06:59:18.651Z,0.00
2023-02-19T07:00:18.801Z,0.00
2023-02-19T07:01:19.103Z,0.00
2023-02-19T07:02:19.125Z,0.00
2023-02-19T07:03:19.319Z,0.00
2023-02-19T07:04:19.558Z,0.00
2023-02-19T07:05:19.649Z,0.00
2023-02-19T07:06:19.808Z,0.00
2023-02-19T07:07:19.985Z,0.00
2023-02-19T07:08:20.136Z,0.00
2023-02-19T07:09:20.340Z,0.00
2023-02-19T07:10:20.498Z,0.00
2023-02-19T07:11:20.668Z,0.00
2023-02-19T07:12:20.829Z,5.62
2023-02-19T07:13:20.997Z,5.62
2023-02-19T07:14:21.207Z,5.62
2023-02-19T07:15:21.368Z,5.62
2023-02-19T07:16:21.540Z,5.62
2023-02-19T07:17:21.679Z,5.62
2023-02-19T07:18:21.863Z,5.62
2023-02-19T07:19:22.099Z,5.62
2023-02-19T07:20:22.237Z,5.62
2023-02-19T07:21:22.417Z,5.62
2023-02-19T07:22:22.587Z,5.62
2023-02-19T07:23:22.776Z,5.62
2023-02-19T07:24:22.988Z,5.62
2023-02-19T07:25:23.148Z,5.62
2023-02-19T07:26:23.336Z,5.62
2023-02-19T07:27:23.521Z,5.62
2023-02-19T07:28:23.699Z,5.62
2023-02-19T07:29:23.917Z,11.25
2023-02-19T07:30:24.085Z,11.25
2023-02-19T07:31:24.528Z,11.25
2023-02-19T07:32:24.429Z,11.25
2023-02-19T07:33:24.593Z,11.25
2023-02-19T07:34:24.749Z,11.25
2023-02-19T07:35:24.913Z,11.25
2023-02-19T07:36:25.091Z,11.25
2023-02-19T07:37:25.225Z,11.25
2023-02-19T07:38:25.381Z,11.25
2023-02-19T07:39:25.542Z,11.25
2023-02-19T07:40:25.705Z,11.25
2023-02-19T07:41:25.957Z,11.25
2023-02-19T07:42:26.023Z,11.25
2023-02-19T07:43:26.184Z,11.25
2023-02-19T07:44:26.342Z,11.25
2023-02-19T07:45:26.578Z,11.25
2023-02-19T07:46:26.720Z,11.25
2023-02-19T07:47:26.878Z,11.25
2023-02-19T07:48:27.038Z,16.88
2023-02-19T07:49:27.197Z,16.88
2023-02-19T07:50:27.358Z,16.88
2023-02-19T07:51:27.590Z,22.50
2023-02-19T07:52:27.708Z,22.50
2023-02-19T07:53:27.934Z,22.50
2023-02-19T07:54:28.084Z,22.50
2023-02-19T07:55:28.228Z,22.50
2023-02-19T07:56:28.400Z,28.12
2023-02-19T07:57:28.567Z,22.50
2023-02-19T07:58:29.716Z,22.50
2023-02-19T07:59:28.905Z,22.50
2023-02-19T08:00:29.059Z,22.50
2023-02-19T08:01:29.364Z,28.12
2023-02-19T08:02:29.420Z,28.12
2023-02-19T08:03:29.656Z,28.12
2023-02-19T08:04:29.742Z,45.00
2023-02-19T08:05:29.906Z,45.00
2023-02-19T08:06:30.104Z,33.75
2023-02-19T08:07:30.242Z,28.12
2023-02-19T08:08:30.398Z,28.12
2023-02-19T08:09:30.604Z,33.75
2023-02-19T08:10:30.771Z,33.75
2023-02-19T08:11:31.023Z,28.12
2023-02-19T08:12:31.159Z,33.75
2023-02-19T08:13:31.335Z,50.62
2023-02-19T08:14:31.499Z,67.50
2023-02-19T08:15:31.674Z,61.88
2023-02-19T08:16:42.694Z,67.50
2023-02-19T08:17:33.004Z,56.25
2023-02-19T08:18:32.164Z,61.88
2023-02-19T08:19:32.329Z,61.88
2023-02-19T08:20:32.481Z,61.88
2023-02-19T08:21:34.375Z,61.88
2023-02-19T08:22:32.830Z,61.88
2023-02-19T08:23:33.014Z,61.88
2023-02-19T08:24:33.206Z,61.88
2023-02-19T08:25:33.416Z,61.88
2023-02-19T08:26:33.553Z,61.88
2023-02-19T08:27:33.715Z,61.88
2023-02-19T08:28:33.856Z,61.88
2023-02-19T08:29:34.080Z,61.88
2023-02-19T08:30:34.284Z,33.75
2023-02-19T08:31:34.572Z,67.50
2023-02-19T08:32:34.575Z,73.12
2023-02-19T08:33:34.782Z,78.75
2023-02-19T08:34:34.905Z,84.38
2023-02-19T08:35:35.085Z,84.38
2023-02-19T08:36:35.299Z,90.00
2023-02-19T08:37:35.437Z,90.00
2023-02-19T08:38:35.621Z,90.00
2023-02-19T08:39:35.844Z,95.62
2023-02-19T08:40:36.000Z,95.62
2023-02-19T08:41:36.157Z,90.00
2023-02-19T08:42:36.327Z,95.62
2023-02-19T08:43:36.481Z,112.50
2023-02-19T08:44:36.665Z,61.88
2023-02-19T08:45:36.845Z,67.50
2023-02-19T08:46:37.030Z,84.38
2023-02-19T08:47:37.173Z,90.00
2023-02-19T08:48:37.360Z,67.50
2023-02-19T08:49:37.506Z,39.38
2023-02-19T08:50:37.694Z,61.88
2023-02-19T08:51:37.846Z,50.62
2023-02-19T08:52:38.021Z,78.75
2023-02-19T08:53:38.207Z,84.38
2023-02-19T08:54:38.395Z,67.50
2023-02-19T08:55:38.576Z,50.62
2023-02-19T08:56:38.708Z,73.12
2023-02-19T08:57:38.879Z,106.88
2023-02-19T08:58:39.045Z,112.50
2023-02-19T08:59:39.202Z,56.25
2023-02-19T09:00:39.358Z,45.00
2023-02-19T09:01:39.600Z,101.25
2023-02-19T09:02:39.718Z,45.00
2023-02-19T09:03:39.911Z,118.12
2023-02-19T09:04:40.070Z,118.12
2023-02-19T09:05:40.237Z,61.88
2023-02-19T09:06:40.452Z,56.25
2023-02-19T09:07:40.580Z,78.75
2023-02-19T09:08:40.740Z,112.50
2023-02-19T09:09:40.912Z,67.50
2023-02-19T09:10:41.064Z,90.00
2023-02-19T09:11:41.258Z,90.00
2023-02-19T09:12:41.398Z,95.62
2023-02-19T09:13:41.578Z,50.62
2023-02-19T09:14:41.728Z,33.75
2023-02-19T09:15:41.952Z,61.88
2023-02-19T09:16:42.122Z,50.62
2023-02-19T09:17:42.275Z,61.88
2023-02-19T09:18:42.456Z,45.00
2023-02-19T09:19:42.613Z,28.12
2023-02-19T09:20:42.768Z,33.75
2023-02-19T09:21:42.989Z,50.62
2023-02-19T09:22:43.123Z,67.50
2023-02-19T09:23:43.315Z,45.00
2023-02-19T09:24:43.478Z,28.12
2023-02-19T09:25:43.639Z,33.75
2023-02-19T09:26:43.887Z,56.25
2023-02-19T09:27:43.989Z,56.25
2023-02-19T09:28:44.163Z,101.25
2023-02-19T09:29:44.316Z,73.12
2023-02-19T09:30:44.526Z,73.12
2023-02-19T09:31:44.772Z,78.75
2023-02-19T09:34:00.399Z,90.00
2023-02-19T09:35:00.600Z,185.62
2023-02-19T09:36:00.758Z,146.25
2023-02-19T09:37:00.928Z,67.50
2023-02-19T09:38:01.112Z,61.88
2023-02-19T09:39:01.293Z,168.75
2023-02-19T09:40:01.472Z,180.00
2023-02-19T09:41:01.684Z,180.00
2023-02-19T09:42:02.015Z,202.50
2023-02-19T09:43:02.022Z,208.12
2023-02-19T09:44:02.205Z,213.75
2023-02-19T09:45:02.353Z,95.62
2023-02-19T09:46:02.551Z,67.50
2023-02-19T09:47:02.678Z,106.88
2023-02-19T09:48:02.865Z,135.00
2023-02-19T09:49:03.909Z,73.12
2023-02-19T09:50:03.185Z,61.88
2023-02-19T09:51:03.338Z,61.88
2023-02-19T09:52:03.613Z,157.50
2023-02-19T09:53:03.741Z,208.12
2023-02-19T09:54:03.904Z,208.12
2023-02-19T09:55:04.069Z,202.50
2023-02-19T09:56:04.247Z,219.38
2023-02-19T09:57:04.461Z,168.75
2023-02-19T09:58:04.629Z,73.12
2023-02-19T09:59:04.750Z,258.75
2023-02-19T10:00:04.919Z,84.38
2023-02-19T10:01:05.092Z,450.00
2023-02-19T10:02:05.283Z,455.62
2023-02-19T10:03:05.431Z,298.12
2023-02-19T10:04:05.620Z,106.88
2023-02-19T10:05:05.801Z,191.25
2023-02-19T10:06:05.942Z,146.25
2023-02-19T10:07:06.153Z,73.12
2023-02-19T10:08:06.324Z,78.75
2023-02-19T10:09:06.535Z,208.12
2023-02-19T10:10:06.701Z,84.38
2023-02-19T10:11:06.871Z,78.75
2023-02-19T10:12:08.322Z,202.50
2023-02-19T10:13:07.206Z,208.12
2023-02-19T10:14:07.390Z,106.88
2023-02-19T10:15:07.566Z,73.12
2023-02-19T10:16:07.757Z,73.12
2023-02-19T10:17:08.178Z,118.12
2023-02-19T10:18:11.036Z,78.75
2023-02-19T10:19:08.272Z,84.38
2023-02-19T10:20:08.434Z,78.75
2023-02-19T10:21:08.879Z,78.75
2023-02-19T10:22:08.765Z,78.75
2023-02-19T10:23:08.954Z,73.12
2023-02-19T10:24:09.127Z,67.50
2023-02-19T10:25:09.316Z,213.75
2023-02-19T10:26:09.492Z,95.62
2023-02-19T10:27:09.639Z,78.75
2023-02-19T10:28:09.799Z,236.25
2023-02-19T10:29:09.981Z,112.50
2023-02-19T10:30:10.188Z,95.62
2023-02-19T10:31:10.775Z,112.50
2023-02-19T10:32:10.567Z,106.88
2023-02-19T10:33:10.687Z,241.88
2023-02-19T10:34:10.871Z,208.12
2023-02-19T10:35:11.030Z,84.38
2023-02-19T10:36:11.231Z,590.62
2023-02-19T10:37:12.380Z,90.00
2023-02-19T10:38:11.586Z,67.50
2023-02-19T10:39:11.744Z,67.50
2023-02-19T10:40:11.910Z,95.62
2023-02-19T10:41:12.355Z,95.62
2023-02-19T10:42:12.247Z,157.50
2023-02-19T10:43:12.407Z,78.75
2023-02-19T10:44:12.607Z,73.12
2023-02-19T10:45:12.725Z,219.38
2023-02-19T10:46:12.905Z,225.00
2023-02-19T10:47:13.099Z,225.00
2023-02-19T10:48:13.279Z,135.00
2023-02-19T10:49:13.436Z,84.38
2023-02-19T10:50:13.624Z,230.62
2023-02-19T10:51:13.930Z,225.00
2023-02-19T10:52:13.966Z,90.00
2023-02-19T10:53:14.160Z,225.00
2023-02-19T10:54:14.344Z,118.12
2023-02-19T10:55:14.514Z,95.62
2023-02-19T10:56:14.681Z,225.00
2023-02-19T10:57:14.844Z,236.25
2023-02-19T10:58:15.046Z,241.88
2023-02-19T10:59:15.190Z,236.25
2023-02-19T11:00:15.410Z,236.25
2023-02-19T11:01:15.512Z,163.12
2023-02-19T11:02:15.683Z,236.25
2023-02-19T11:03:15.840Z,247.50
2023-02-19T11:04:16.088Z,247.50
2023-02-19T11:05:16.205Z,241.88
2023-02-19T11:06:16.362Z,90.00
2023-02-19T11:07:16.556Z,247.50
2023-02-19T11:08:16.722Z,258.75
2023-02-19T11:09:16.923Z,247.50
2023-02-19T11:10:17.101Z,241.88
2023-02-19T11:11:17.223Z,90.00
2023-02-19T11:12:17.393Z,168.75
2023-02-19T11:13:17.540Z,275.62
2023-02-19T11:14:17.718Z,118.12
2023-02-19T11:15:17.886Z,112.50
2023-02-19T11:16:18.131Z,90.00
2023-02-19T11:17:18.252Z,84.38
2023-02-19T11:18:18.441Z,90.00
2023-02-19T11:19:18.584Z,95.62
2023-02-19T11:20:18.777Z,101.25
2023-02-19T11:21:18.949Z,90.00
2023-02-19T11:22:19.121Z,140.62
2023-02-19T11:23:19.306Z,196.88
2023-02-19T11:24:19.469Z,90.00
2023-02-19T11:25:19.627Z,90.00
2023-02-19T11:26:19.814Z,281.25
2023-02-19T11:27:19.977Z,174.38
2023-02-19T11:28:20.128Z,95.62
2023-02-19T11:29:20.305Z,95.62
2023-02-19T11:30:20.514Z,95.62
2023-02-19T11:31:20.805Z,264.38
2023-02-19T11:32:21.110Z,84.38
2023-02-19T11:33:21.011Z,95.62
2023-02-19T11:34:21.217Z,101.25
2023-02-19T11:35:21.353Z,213.75
2023-02-19T11:36:21.540Z,95.62
2023-02-19T11:37:21.704Z,95.62
2023-02-19T11:38:21.905Z,281.25
2023-02-19T11:39:22.070Z,281.25
2023-02-19T11:40:22.258Z,281.25
2023-02-19T11:41:22.457Z,112.50
2023-02-19T11:42:22.566Z,208.12
2023-02-19T11:43:22.742Z,281.25
2023-02-19T11:44:22.925Z,140.62
2023-02-19T11:45:23.083Z,258.75
2023-02-19T11:46:23.268Z,275.62
2023-02-19T11:47:23.425Z,275.62
2023-02-19T11:48:23.654Z,281.25
2023-02-19T11:49:23.799Z,286.88
2023-02-19T11:50:23.953Z,95.62
2023-02-19T11:51:24.108Z,247.50
2023-02-19T11:52:24.287Z,123.75
2023-02-19T11:53:24.436Z,146.25
2023-02-19T11:54:24.605Z,95.62
2023-02-19T11:55:24.786Z,90.00
2023-02-19T11:56:24.953Z,101.25
2023-02-19T11:57:25.123Z,84.38
2023-02-19T11:58:25.311Z,90.00
2023-02-19T11:59:25.464Z,90.00
2023-02-19T12:00:25.660Z,106.88
2023-02-19T12:01:25.826Z,95.62
2023-02-19T12:02:25.996Z,90.00
2023-02-19T12:03:26.170Z,84.38
2023-02-19T12:04:26.348Z,84.38
2023-02-19T12:05:26.527Z,90.00
2023-02-19T12:06:26.683Z,101.25
2023-02-19T12:07:26.846Z,106.88
2023-02-19T12:08:27.004Z,101.25
2023-02-19T12:09:27.213Z,106.88
2023-02-19T12:10:27.348Z,326.25
2023-02-19T12:11:27.503Z,140.62
2023-02-19T12:12:27.699Z,208.12
2023-02-19T12:13:27.870Z,168.75
2023-02-19T12:14:28.049Z,354.38
2023-02-19T12:15:28.225Z,320.62
2023-02-19T12:16:28.488Z,354.38
2023-02-19T12:17:28.556Z,371.25
2023-02-19T12:18:28.745Z,151.88
2023-02-19T12:19:28.902Z,365.62
2023-02-19T12:20:31.711Z,371.25
2023-02-19T12:21:29.245Z,376.88
2023-02-19T12:22:29.445Z,388.12
2023-02-19T12:23:29.640Z,399.38
2023-02-19T12:24:29.749Z,135.00
2023-02-19T12:25:29.938Z,118.12
2023-02-19T12:26:30.104Z,129.38
2023-02-19T12:27:30.270Z,416.25
2023-02-19T12:28:30.471Z,427.50
2023-02-19T12:29:30.611Z,523.12
2023-02-19T12:30:30.787Z,433.12
2023-02-19T12:31:33.068Z,129.38
2023-02-19T12:32:31.115Z,118.12
2023-02-19T12:33:31.280Z,140.62
2023-02-19T12:34:31.451Z,1023.75
2023-02-19T12:35:31.633Z,1186.88
2023-02-19T12:36:31.816Z,1355.62
2023-02-19T12:37:31.997Z,118.12
2023-02-19T12:38:32.172Z,1231.88
2023-02-19T12:39:32.348Z,1389.38
2023-02-19T12:40:32.521Z,568.12
2023-02-19T12:41:32.661Z,168.75
2023-02-19T12:42:32.813Z,1068.75
2023-02-19T12:43:33.013Z,1400.62
2023-02-19T12:44:33.161Z,680.62
2023-02-19T12:45:33.442Z,911.25
2023-02-19T12:46:33.560Z,832.50
2023-02-19T12:47:33.755Z,810.00
2023-02-19T12:48:33.891Z,776.25
2023-02-19T12:49:34.098Z,742.50
2023-02-19T12:50:34.253Z,714.38
2023-02-19T12:51:34.423Z,697.50
2023-02-19T12:52:34.571Z,703.12
2023-02-19T12:53:34.760Z,607.50
2023-02-19T12:54:34.942Z,573.75
2023-02-19T12:55:35.088Z,568.12
2023-02-19T12:56:35.240Z,523.12
2023-02-19T12:57:35.429Z,472.50
2023-02-19T12:58:35.598Z,455.62
2023-02-19T12:59:35.818Z,450.00
2023-02-19T13:00:35.917Z,489.38
2023-02-19T13:01:36.114Z,500.62
2023-02-19T13:02:36.313Z,466.88
2023-02-19T13:03:36.439Z,461.25
2023-02-19T13:04:36.654Z,230.62
2023-02-19T13:05:36.770Z,483.75
2023-02-19T13:06:36.935Z,483.75